Puyallup, WA

12:06 PM PDT on July 26, 2016 (GMT -0700)
Pierce County - Thun Field | | Change Station

Elev 538 ft 47.10 °N, 122.29 °W | Updated 11 minutes ago

Overcast
Overcast
64 °F
Feels Like 64 °F
N
0
Wind Variable Wind from North

Today
High -- | Low -- °F
--% Chance of Precip.
Yesterday
High -- | Low -- °F
Precip. -- in
Pressure 30.18 in
Visibility -9999.0 miles
Clouds Overcast 1600 ft
Dew Point 59 °F
Humidity 83%
Rainfall 0.00 in
Snow Depth Not available.
5:41 AM 8:48 PM
Waning Gibbous, 52% visible
METAR KPLU 261855Z AUTO 00000KT OVC016 18/15 A3018 RMK AO2
Pressure 30.18 in
Visibility -9999.0 miles
Clouds Overcast 1600 ft
Dew Point 59 °F
Humidity 83%
Rainfall 0.00 in
Snow Depth Not available.
5:41 AM 8:48 PM
Waning Gibbous, 52% visible
METAR KPLU 261855Z AUTO 00000KT OVC016 18/15 A3018 RMK AO2

10-Day Weather Forecast

Almanac

Astronomy

Jul. 26, 2016 Rise Set
Actual Time
Civil Twilight
Nautical Twilight
Astronomical Twilight
Moon
Length of Visible Light
Length of Day
Tomorrow will be .
, % of the Moon is Illuminated

Today's Extremes

State Highs State Lows

Community

WunderPhotos

Upload Photos

1,927,662 photos uploaded!

WunderBlog® & News

Nearby

Air Quality

  Air Quality AQ Index Pollutant
Not available.

Snow Depth

Station Depth Elevation

Earthquake Activity

City Distance Mag. Time & Date
Minimum magnitude displayed is 2.5.

Coastal Water Temperatures

Place Temperature

Stations

Nearby Weather Stations

Station Location Temp. Windchill Dew Point Humidity Wind Precip. Elev Updated Type
                   

Watches & Warnings

There are currently no watches in effect.